Česky Dansk Deutsch English Español Suomi Français Magyar Italiano Nederlands norsk Polski Português svenska Türkçe

 

Het Weer

Hamburg-Finkenwerder (Duitsland)

15:50, 20 augustus 2016 (GMT)

NWNNE
WE
SWSSE
Home            
Hamburg-Finkenwerder Hamburg-Fuhlsbuettel Itzehoe Luebeck-Blankensee Fassberg Bergen Nordholz Bremen Hohn Lemwerder Kiel-Holtenau Kiel / Holtenau Civilian Celle Schleswig-Jagel Hannover Wunstorf Eggebek Jever Mecklenburg-Vorpommern, Parchim Wittmundhaven Braunschweig Diepholz Gluecksburg / Meierwik

Om een weerknop op uw website of weblog te plaatsen, copieer onderstaande code en plak die in uw pagina. In het eerste vakje staat HTML-code, in het tweede vakje UBB-code.


Add to Google

Details

Wind speed:2 bf, 5 kn, 2.6 m/s, 5.8 miles/h, 9.3 km/h
Wind direction:SSE, 160° - SW, 220°
Visibility:Greater than 10000 m, 10 km, 32800 ft, 6.2 miles
Clouds:CAVOC
Temperature:22°C, 72°F
Gefühlte Temperatur:24°C, 75°F
Dew-point:16°C, 61°F
Atmospheric pressure:1011 hPa, 758.3 mmHg, 29.85 inHg, 0.998 atm
Relative humidity:68.8 %
METAR:EDHI 201550Z 20005KT 160V220 CAVOK 22/16 Q1011

Snelkoppelingen

Actuele weersinformatie van de hele wereld. Voeg locaties toe met het plus (+) symbool. Deze snelkoppelingen kunnen worden toegevoegd aan Google.

Lid van de Technetium groep

website free tracking
StatCounter NetStat W3C Validator

15-08-2022 02:15:00
astro.technetium.be money.technetium.be phote.technetium.be tafeltennistafel.technetium.be www.ligfiets.net